createdAt,value
2019-02-15T00:02:04.350Z,99.90
2019-02-15T00:04:31.860Z,99.90
2019-02-15T00:06:59.219Z,99.90
2019-02-15T00:09:26.467Z,99.90
2019-02-15T00:11:53.719Z,99.90
2019-02-15T00:14:21.082Z,99.90
2019-02-15T00:16:48.406Z,99.90
2019-02-15T00:19:40.179Z,99.90
2019-02-15T00:22:07.438Z,99.90
2019-02-15T00:24:34.701Z,99.50
2019-02-15T00:27:01.992Z,99.50
2019-02-15T00:29:29.617Z,99.80
2019-02-15T00:31:57.002Z,99.60
2019-02-15T00:34:24.419Z,99.80
2019-02-15T00:36:52.038Z,99.80
2019-02-15T00:39:19.270Z,99.50
2019-02-15T00:41:46.702Z,99.20
2019-02-15T00:44:14.386Z,99.30
2019-02-15T00:46:58.059Z,99.60
2019-02-15T00:49:51.668Z,99.10
2019-02-15T00:52:35.812Z,99.40
2019-02-15T00:55:15.562Z,99.40
2019-02-15T00:57:56.302Z,99.80
2019-02-15T01:00:37.997Z,99.90
2019-02-15T01:03:27.453Z,99.90
2019-02-15T01:06:20.278Z,99.90
2019-02-15T01:08:56.674Z,99.90
2019-02-15T01:11:27.727Z,99.90
2019-02-15T01:13:54.946Z,99.90
2019-02-15T01:16:22.186Z,99.90
2019-02-15T01:18:49.466Z,99.90
2019-02-15T01:21:16.774Z,99.90
2019-02-15T01:23:44.011Z,99.90
2019-02-15T01:26:37.013Z,99.90
2019-02-15T01:29:22.562Z,99.90
2019-02-15T01:32:04.498Z,99.90
2019-02-15T01:35:03.143Z,99.90
2019-02-15T01:38:05.125Z,99.90
2019-02-15T01:40:49.925Z,99.90
2019-02-15T01:43:42.778Z,99.90
2019-02-15T01:46:16.983Z,99.90
2019-02-15T01:48:44.334Z,99.90
2019-02-15T01:51:12.514Z,99.90
2019-02-15T01:53:39.856Z,99.90
2019-02-15T01:56:07.085Z,99.90
2019-02-15T01:58:34.340Z,99.90
2019-02-15T02:01:01.707Z,99.90
2019-02-15T02:03:28.954Z,99.90
2019-02-15T02:05:56.311Z,99.90
2019-02-15T02:08:25.018Z,99.90
2019-02-15T02:10:52.257Z,99.90
2019-02-15T02:13:19.595Z,99.90
2019-02-15T02:15:46.842Z,99.90
2019-02-15T02:18:14.105Z,99.90
2019-02-15T02:20:41.474Z,99.90
2019-02-15T02:23:08.842Z,99.90
2019-02-15T02:25:36.167Z,99.90
2019-02-15T02:28:03.524Z,99.90
2019-02-15T02:30:30.886Z,99.90
2019-02-15T02:32:58.201Z,99.90
2019-02-15T02:35:25.585Z,99.90
2019-02-15T02:37:52.880Z,99.90
2019-02-15T02:40:20.189Z,99.90
2019-02-15T02:42:47.453Z,99.90
2019-02-15T02:45:14.764Z,99.90
2019-02-15T02:47:42.067Z,99.90
2019-02-15T02:50:09.561Z,99.90
2019-02-15T02:52:49.455Z,99.90
2019-02-15T02:55:16.706Z,99.90
2019-02-15T02:57:44.057Z,99.90
2019-02-15T03:00:11.414Z,99.90
2019-02-15T03:02:38.661Z,99.90
2019-02-15T03:05:06.052Z,99.90
2019-02-15T03:07:33.439Z,99.90
2019-02-15T03:10:00.806Z,99.90
2019-02-15T03:12:28.137Z,99.90
2019-02-15T03:14:55.459Z,99.90
2019-02-15T03:17:22.889Z,99.90
2019-02-15T03:19:50.266Z,99.90
2019-02-15T03:22:17.732Z,99.90
2019-02-15T03:24:44.983Z,99.90
2019-02-15T03:27:13.593Z,99.90
2019-02-15T03:29:40.975Z,99.90
2019-02-15T03:32:08.355Z,99.90
2019-02-15T03:34:36.420Z,99.90
2019-02-15T03:37:12.662Z,99.90
2019-02-15T03:39:59.719Z,99.90
2019-02-15T03:42:27.077Z,99.90
2019-02-15T03:44:54.338Z,99.90
2019-02-15T03:47:24.333Z,99.90
2019-02-15T03:49:51.566Z,99.90
2019-02-15T03:52:18.822Z,99.90
2019-02-15T03:54:47.150Z,99.90
2019-02-15T03:57:14.608Z,99.90
2019-02-15T03:59:42.136Z,99.90
2019-02-15T04:02:09.626Z,99.90
2019-02-15T04:04:36.886Z,99.90
2019-02-15T04:07:04.263Z,99.90
2019-02-15T04:09:31.535Z,99.90
2019-02-15T04:11:58.877Z,99.90
2019-02-15T04:14:32.483Z,99.90
2019-02-15T04:16:55.574Z,99.90
2019-02-15T04:19:23.061Z,99.90
2019-02-15T04:21:50.279Z,99.90
2019-02-15T04:24:17.534Z,99.90
2019-02-15T04:26:44.799Z,99.90
2019-02-15T04:29:12.391Z,99.90
2019-02-15T04:31:39.777Z,99.90
2019-02-15T04:34:07.270Z,99.90
2019-02-15T04:36:34.502Z,99.90
2019-02-15T04:39:01.957Z,99.90
2019-02-15T04:41:29.246Z,99.90
2019-02-15T04:43:56.710Z,99.90
2019-02-15T04:46:23.976Z,99.90
2019-02-15T04:48:51.452Z,99.90
2019-02-15T04:51:18.812Z,99.90
2019-02-15T04:53:46.210Z,99.90
2019-02-15T04:56:13.666Z,99.90
2019-02-15T04:58:40.884Z,99.90
2019-02-15T05:01:08.120Z,99.90
2019-02-15T05:03:35.470Z,99.90
2019-02-15T05:06:02.852Z,99.90
2019-02-15T05:08:30.174Z,99.90
2019-02-15T05:10:57.578Z,99.90
2019-02-15T05:13:24.851Z,99.90
2019-02-15T05:15:52.365Z,99.90
2019-02-15T05:18:19.784Z,99.90
2019-02-15T05:20:47.049Z,99.90
2019-02-15T05:23:14.562Z,99.90
2019-02-15T05:25:41.849Z,99.90
2019-02-15T05:28:09.238Z,99.90
2019-02-15T05:30:36.695Z,99.90
2019-02-15T05:33:04.019Z,99.90
2019-02-15T05:35:31.281Z,99.90
2019-02-15T05:37:58.525Z,99.90
2019-02-15T05:40:25.933Z,99.90
2019-02-15T05:42:53.255Z,99.90
2019-02-15T05:45:20.526Z,99.90
2019-02-15T05:47:47.806Z,99.90
2019-02-15T05:50:15.289Z,99.90
2019-02-15T05:52:42.538Z,99.90
2019-02-15T05:55:09.798Z,99.90
2019-02-15T05:57:38.022Z,99.90
2019-02-15T06:00:06.983Z,99.90
2019-02-15T06:02:34.318Z,99.90
2019-02-15T06:05:01.605Z,99.90
2019-02-15T06:07:28.870Z,99.90
2019-02-15T06:09:56.252Z,99.90
2019-02-15T06:12:23.765Z,99.90
2019-02-15T06:14:51.203Z,99.90
2019-02-15T06:17:18.441Z,99.90
2019-02-15T06:19:45.788Z,99.90
2019-02-15T06:22:13.044Z,99.90
2019-02-15T06:24:40.522Z,99.90
2019-02-15T06:27:07.825Z,99.90
2019-02-15T06:29:35.398Z,99.90
2019-02-15T06:32:02.690Z,99.90
2019-02-15T06:34:30.046Z,99.90
2019-02-15T06:36:57.406Z,99.90
2019-02-15T06:39:24.665Z,99.90
2019-02-15T06:41:52.071Z,99.90
2019-02-15T06:44:19.371Z,99.90
2019-02-15T06:46:47.042Z,99.90
2019-02-15T06:49:14.470Z,99.90
2019-02-15T06:51:41.714Z,99.90
2019-02-15T06:54:09.043Z,99.90
2019-02-15T06:56:36.516Z,99.90
2019-02-15T06:59:29.906Z,99.90
2019-02-15T07:02:14.554Z,99.90
2019-02-15T07:04:53.542Z,99.90
2019-02-15T07:07:21.009Z,99.90
2019-02-15T07:09:48.399Z,99.90
2019-02-15T07:12:15.680Z,99.90
2019-02-15T07:14:43.030Z,99.90
2019-02-15T07:17:10.282Z,99.90
2019-02-15T07:19:37.677Z,99.90
2019-02-15T07:22:04.949Z,99.90
2019-02-15T07:24:32.198Z,99.90
2019-02-15T07:26:59.565Z,99.90
2019-02-15T07:29:27.004Z,99.90
2019-02-15T07:31:54.267Z,99.90
2019-02-15T07:34:21.639Z,99.90
2019-02-15T07:36:48.855Z,99.90
2019-02-15T07:39:16.406Z,99.90
2019-02-15T07:41:43.958Z,99.90
2019-02-15T07:44:11.342Z,99.90
2019-02-15T07:46:38.590Z,99.90
2019-02-15T07:49:06.013Z,99.90
2019-02-15T07:51:33.286Z,99.90
2019-02-15T07:54:00.592Z,99.60
2019-02-15T07:56:27.994Z,99.00
2019-02-15T07:58:55.215Z,98.80
2019-02-15T08:01:23.353Z,99.20
2019-02-15T08:03:50.614Z,99.20
2019-02-15T08:06:17.940Z,99.50
2019-02-15T08:08:45.278Z,99.40
2019-02-15T08:11:12.922Z,98.90
2019-02-15T08:13:40.149Z,98.40
2019-02-15T08:16:07.389Z,98.80
2019-02-15T08:18:34.642Z,98.80
2019-02-15T08:21:01.871Z,97.90
2019-02-15T08:23:29.310Z,98.10
2019-02-15T08:25:56.638Z,98.10
2019-02-15T08:28:23.886Z,98.30
2019-02-15T08:30:51.368Z,98.10
2019-02-15T08:33:18.603Z,98.40
2019-02-15T08:35:45.953Z,98.80
2019-02-15T08:38:13.204Z,97.90
2019-02-15T08:40:40.429Z,97.50
2019-02-15T08:43:07.692Z,98.50
2019-02-15T08:45:34.930Z,98.30
2019-02-15T08:48:02.190Z,97.60
2019-02-15T08:50:29.607Z,98.20
2019-02-15T08:52:57.234Z,98.30
2019-02-15T08:55:24.506Z,97.30
2019-02-15T08:57:51.853Z,97.60
2019-02-15T09:00:19.106Z,96.50
2019-02-15T09:02:47.394Z,96.40
2019-02-15T09:05:14.718Z,96.50
2019-02-15T09:07:41.997Z,97.00
2019-02-15T09:10:10.115Z,96.50
2019-02-15T09:12:37.374Z,96.90
2019-02-15T09:15:07.270Z,96.40
2019-02-15T09:17:34.683Z,95.80
2019-02-15T09:20:02.237Z,94.90
2019-02-15T09:22:29.653Z,94.30
2019-02-15T09:24:56.918Z,94.20
2019-02-15T09:27:46.482Z,93.20
2019-02-15T09:30:14.222Z,92.50
2019-02-15T09:32:41.542Z,90.80
2019-02-15T09:35:09.391Z,90.00
2019-02-15T09:37:36.725Z,88.40
2019-02-15T09:40:04.754Z,88.20
2019-02-15T09:42:32.133Z,87.60
2019-02-15T09:44:59.406Z,88.10
2019-02-15T09:47:26.789Z,87.90
2019-02-15T09:49:54.034Z,87.00
2019-02-15T09:52:21.474Z,89.80
2019-02-15T09:54:48.737Z,90.20
2019-02-15T09:57:16.031Z,91.00
2019-02-15T09:59:43.346Z,90.30
2019-02-15T10:02:10.686Z,90.80
2019-02-15T10:04:37.990Z,91.50
2019-02-15T10:07:05.337Z,91.20
2019-02-15T10:09:32.714Z,90.50
2019-02-15T10:12:00.117Z,90.40
2019-02-15T10:14:27.498Z,90.70
2019-02-15T10:16:54.853Z,90.50
2019-02-15T10:19:22.751Z,90.00
2019-02-15T10:21:50.365Z,90.10
2019-02-15T10:24:17.848Z,90.50
2019-02-15T10:26:45.147Z,87.90
2019-02-15T10:29:12.595Z,86.90
2019-02-15T10:31:39.931Z,85.20
2019-02-15T10:34:07.277Z,85.50
2019-02-15T10:36:34.532Z,85.00
2019-02-15T10:39:01.911Z,86.20
2019-02-15T10:41:29.206Z,86.50
2019-02-15T10:43:56.557Z,88.30
2019-02-15T10:46:23.817Z,86.20
2019-02-15T10:48:51.094Z,83.90
2019-02-15T10:51:18.475Z,84.60
2019-02-15T10:53:45.738Z,85.60
2019-02-15T10:56:13.174Z,84.90
2019-02-15T10:58:40.779Z,83.60
2019-02-15T11:01:08.150Z,83.40
2019-02-15T11:03:36.641Z,84.00
2019-02-15T11:06:05.180Z,82.50
2019-02-15T11:08:32.616Z,80.90
2019-02-15T11:10:59.901Z,79.70
2019-02-15T11:13:27.169Z,79.00
2019-02-15T11:15:54.578Z,77.40
2019-02-15T11:18:21.983Z,76.90
2019-02-15T11:20:49.294Z,74.20
2019-02-15T11:23:16.646Z,73.10
2019-02-15T11:25:44.291Z,72.20
2019-02-15T11:28:11.838Z,72.70
2019-02-15T11:30:39.164Z,72.50
2019-02-15T11:33:06.570Z,73.40
2019-02-15T11:35:33.830Z,73.30
2019-02-15T11:38:01.096Z,76.30
2019-02-15T11:40:28.529Z,77.10
2019-02-15T11:42:55.893Z,77.40
2019-02-15T11:45:23.394Z,79.00
2019-02-15T11:47:50.669Z,80.70
2019-02-15T11:50:18.055Z,80.70
2019-02-15T11:52:45.788Z,78.70
2019-02-15T11:55:13.210Z,78.50
2019-02-15T11:57:40.458Z,78.70
2019-02-15T12:00:14.168Z,77.80
2019-02-15T12:02:40.051Z,77.90
2019-02-15T12:05:07.725Z,78.50
2019-02-15T12:07:35.094Z,79.30
2019-02-15T12:10:02.986Z,79.30
2019-02-15T12:12:30.270Z,77.20
2019-02-15T12:14:57.649Z,76.10
2019-02-15T12:17:24.922Z,74.60
2019-02-15T12:19:52.282Z,73.80
2019-02-15T12:22:19.777Z,74.40
2019-02-15T12:24:47.143Z,74.50
2019-02-15T12:27:14.597Z,74.70
2019-02-15T12:29:41.889Z,74.90
2019-02-15T12:32:09.375Z,74.90
2019-02-15T12:34:37.727Z,73.70
2019-02-15T12:37:05.114Z,72.90
2019-02-15T12:39:32.402Z,73.30
2019-02-15T12:41:59.789Z,72.60
2019-02-15T12:44:27.796Z,72.50
2019-02-15T12:46:55.281Z,72.50
2019-02-15T12:49:22.694Z,72.40
2019-02-15T12:51:50.055Z,70.50
2019-02-15T12:54:17.538Z,70.90
2019-02-15T12:56:45.122Z,72.40
2019-02-15T12:59:12.478Z,70.00
2019-02-15T13:01:39.736Z,68.70
2019-02-15T13:04:07.002Z,69.50
2019-02-15T13:06:34.394Z,70.10
2019-02-15T13:09:01.742Z,68.90
2019-02-15T13:11:29.101Z,68.10
2019-02-15T13:13:56.681Z,67.90
2019-02-15T13:16:24.114Z,67.60
2019-02-15T13:18:51.521Z,67.70
2019-02-15T13:21:19.197Z,68.60
2019-02-15T13:23:46.699Z,68.00
2019-02-15T13:26:14.233Z,65.80
2019-02-15T13:28:41.666Z,66.40
2019-02-15T13:31:09.238Z,67.10
2019-02-15T13:33:36.726Z,66.30
2019-02-15T13:36:04.128Z,67.50
2019-02-15T13:38:31.430Z,66.50
2019-02-15T13:40:58.839Z,65.90
2019-02-15T13:43:26.099Z,65.20
2019-02-15T13:45:53.507Z,63.50
2019-02-15T13:48:20.854Z,63.70
2019-02-15T13:50:48.142Z,66.10
2019-02-15T13:53:15.647Z,66.60
2019-02-15T13:55:42.970Z,67.50
2019-02-15T13:58:10.198Z,68.10
2019-02-15T14:00:37.581Z,65.60
2019-02-15T14:03:04.833Z,68.40
2019-02-15T14:05:32.090Z,67.00
2019-02-15T14:07:59.335Z,67.60
2019-02-15T14:10:26.882Z,67.60
2019-02-15T14:12:54.246Z,68.30
2019-02-15T14:15:21.626Z,67.70
2019-02-15T14:17:49.031Z,66.30
2019-02-15T14:20:16.457Z,67.80
2019-02-15T14:22:43.977Z,67.90
2019-02-15T14:25:12.143Z,67.50
2019-02-15T14:27:39.620Z,66.40
2019-02-15T14:30:09.353Z,67.00
2019-02-15T14:32:36.855Z,66.40
2019-02-15T14:35:04.222Z,65.70
2019-02-15T14:37:31.482Z,65.30
2019-02-15T14:39:58.718Z,66.90
2019-02-15T14:42:26.098Z,66.80
2019-02-15T14:44:53.677Z,65.90
2019-02-15T14:47:21.070Z,65.30
2019-02-15T14:49:48.448Z,65.00
2019-02-15T14:52:15.795Z,64.60
2019-02-15T14:54:43.259Z,65.90
2019-02-15T14:57:10.769Z,66.30
2019-02-15T14:59:39.005Z,66.40
2019-02-15T15:02:06.505Z,66.20
2019-02-15T15:04:33.886Z,65.50
2019-02-15T15:07:01.399Z,67.80
2019-02-15T15:09:28.644Z,67.70
2019-02-15T15:11:56.110Z,67.30
2019-02-15T15:14:23.477Z,67.30
2019-02-15T15:16:50.897Z,67.50
2019-02-15T15:19:18.263Z,68.90
2019-02-15T15:21:45.649Z,69.00
2019-02-15T15:24:13.053Z,69.60
2019-02-15T15:26:40.302Z,69.90
2019-02-15T15:29:07.682Z,68.30
2019-02-15T15:31:34.952Z,69.00
2019-02-15T15:34:02.197Z,69.70
2019-02-15T15:36:29.815Z,69.30
2019-02-15T15:38:57.351Z,69.60
2019-02-15T15:41:24.735Z,69.50
2019-02-15T15:43:52.235Z,68.50
2019-02-15T15:46:19.595Z,68.90
2019-02-15T15:48:46.871Z,67.90
2019-02-15T15:51:14.249Z,66.90
2019-02-15T15:53:41.682Z,66.00
2019-02-15T15:56:08.966Z,65.40
2019-02-15T15:58:36.457Z,66.70
2019-02-15T16:01:03.783Z,67.90
2019-02-15T16:03:31.186Z,68.90
2019-02-15T16:06:00.138Z,69.10
2019-02-15T16:08:27.854Z,72.50
2019-02-15T16:10:55.217Z,74.00
2019-02-15T16:13:22.602Z,74.80
2019-02-15T16:15:49.849Z,76.20
2019-02-15T16:18:17.078Z,77.50
2019-02-15T16:20:44.373Z,78.00
2019-02-15T16:23:11.913Z,78.40
2019-02-15T16:25:39.207Z,78.00
2019-02-15T16:28:06.555Z,78.30
2019-02-15T16:30:33.910Z,79.00
2019-02-15T16:33:01.445Z,80.00
2019-02-15T16:35:28.866Z,79.60
2019-02-15T16:37:56.963Z,79.80
2019-02-15T16:40:24.242Z,79.50
2019-02-15T16:42:51.685Z,79.30
2019-02-15T16:45:18.932Z,79.90
2019-02-15T16:47:46.400Z,79.70
2019-02-15T16:50:15.182Z,79.60
2019-02-15T16:52:42.579Z,79.30
2019-02-15T16:55:12.926Z,81.80
2019-02-15T16:57:39.250Z,83.00
2019-02-15T17:00:07.054Z,82.90
2019-02-15T17:02:34.530Z,82.50
2019-02-15T17:05:01.881Z,83.20
2019-02-15T17:07:29.224Z,82.90
2019-02-15T17:09:56.510Z,82.70
2019-02-15T17:12:23.782Z,82.80
2019-02-15T17:14:51.050Z,82.00
2019-02-15T17:17:18.444Z,82.90
2019-02-15T17:19:45.862Z,83.50
2019-02-15T17:22:13.162Z,83.50
2019-02-15T17:24:40.403Z,83.40
2019-02-15T17:27:07.650Z,83.40
2019-02-15T17:29:34.985Z,83.30
2019-02-15T17:32:02.463Z,82.80
2019-02-15T17:34:29.767Z,82.50
2019-02-15T17:36:57.209Z,84.40
2019-02-15T17:39:24.658Z,84.60
2019-02-15T17:41:52.061Z,84.20
2019-02-15T17:44:19.477Z,84.90
2019-02-15T17:46:46.790Z,85.80
2019-02-15T17:49:14.038Z,85.40
2019-02-15T17:51:41.463Z,86.60
2019-02-15T17:54:08.954Z,86.70
2019-02-15T17:56:36.246Z,87.40
2019-02-15T17:59:03.920Z,87.70
2019-02-15T18:01:32.058Z,87.80
2019-02-15T18:03:59.423Z,88.40
2019-02-15T18:06:26.773Z,90.10
2019-02-15T18:08:54.518Z,90.20
2019-02-15T18:11:21.774Z,90.90
2019-02-15T18:13:49.039Z,91.30
2019-02-15T18:16:16.472Z,91.60
2019-02-15T18:18:43.893Z,92.00
2019-02-15T18:21:11.282Z,92.20
2019-02-15T18:23:38.529Z,92.70
2019-02-15T18:26:05.887Z,92.70
2019-02-15T18:28:33.268Z,92.50
2019-02-15T18:31:00.713Z,93.20
2019-02-15T18:33:28.142Z,93.40
2019-02-15T18:35:55.482Z,93.80
2019-02-15T18:38:22.862Z,93.90
2019-02-15T18:40:50.122Z,94.30
2019-02-15T18:43:17.485Z,94.60
2019-02-15T18:45:44.963Z,95.00
2019-02-15T18:48:12.347Z,95.00
2019-02-15T18:50:39.735Z,94.90
2019-02-15T18:53:07.118Z,95.40
2019-02-15T18:55:34.414Z,95.20
2019-02-15T18:58:01.802Z,95.50
2019-02-15T19:00:29.230Z,96.20
2019-02-15T19:02:56.645Z,96.20
2019-02-15T19:05:24.042Z,95.80
2019-02-15T19:07:51.345Z,96.40
2019-02-15T19:10:18.862Z,97.10
2019-02-15T19:12:46.245Z,96.90
2019-02-15T19:15:13.986Z,96.90
2019-02-15T19:17:41.358Z,97.30
2019-02-15T19:20:09.681Z,97.40
2019-02-15T19:22:37.019Z,97.30
2019-02-15T19:25:05.955Z,97.50
2019-02-15T19:27:33.390Z,97.40
2019-02-15T19:30:00.642Z,97.60
2019-02-15T19:32:28.365Z,98.20
2019-02-15T19:34:55.877Z,98.30
2019-02-15T19:37:23.255Z,98.40
2019-02-15T19:39:50.636Z,97.90
2019-02-15T19:42:20.007Z,97.90
2019-02-15T19:44:47.230Z,98.20
2019-02-15T19:47:14.749Z,98.20
2019-02-15T19:49:41.990Z,98.50
2019-02-15T19:52:09.279Z,98.50
2019-02-15T19:54:36.707Z,98.60
2019-02-15T19:57:04.059Z,99.30
2019-02-15T19:59:31.946Z,99.80
2019-02-15T20:01:59.321Z,99.90
2019-02-15T20:04:26.598Z,99.90
2019-02-15T20:06:54.223Z,99.90
2019-02-15T20:09:21.593Z,99.90
2019-02-15T20:11:48.887Z,99.90
2019-02-15T20:14:16.123Z,99.90
2019-02-15T20:16:43.749Z,99.90
2019-02-15T20:19:11.693Z,99.90
2019-02-15T20:21:39.040Z,99.90
2019-02-15T20:24:06.499Z,99.90
2019-02-15T20:26:33.863Z,99.90
2019-02-15T20:29:01.142Z,99.90
2019-02-15T20:31:28.581Z,99.90
2019-02-15T20:33:55.991Z,99.90
2019-02-15T20:36:23.422Z,99.80
2019-02-15T20:38:50.713Z,99.70
2019-02-15T20:41:18.102Z,99.90
2019-02-15T20:43:45.382Z,99.90
2019-02-15T20:46:12.903Z,99.90
2019-02-15T20:48:40.476Z,99.90
2019-02-15T20:51:07.905Z,99.90
2019-02-15T20:53:35.189Z,99.90
2019-02-15T20:56:02.455Z,99.90
2019-02-15T20:58:29.845Z,99.90
2019-02-15T21:00:57.178Z,99.90
2019-02-15T21:03:24.474Z,99.90
2019-02-15T21:05:51.835Z,99.90
2019-02-15T21:08:19.170Z,99.90
2019-02-15T21:10:54.826Z,99.90
2019-02-15T21:13:20.581Z,99.90
2019-02-15T21:15:45.003Z,99.90
2019-02-15T21:18:12.458Z,99.90
2019-02-15T21:20:39.769Z,99.90
2019-02-15T21:23:07.049Z,99.90
2019-02-15T21:25:34.439Z,99.90
2019-02-15T21:28:01.691Z,99.90
2019-02-15T21:30:29.006Z,99.90
2019-02-15T21:32:56.526Z,99.90
2019-02-15T21:35:23.786Z,99.90
2019-02-15T21:37:51.101Z,99.90
2019-02-15T21:40:18.351Z,99.90
2019-02-15T21:42:45.608Z,99.90
2019-02-15T21:45:13.490Z,99.90
2019-02-15T21:47:40.951Z,99.90
2019-02-15T21:50:16.677Z,99.90
2019-02-15T21:52:43.846Z,99.90
2019-02-15T21:55:07.190Z,99.90
2019-02-15T21:57:34.474Z,99.90
2019-02-15T22:00:01.882Z,99.90
2019-02-15T22:02:29.341Z,99.90
2019-02-15T22:04:56.710Z,99.90
2019-02-15T22:07:24.168Z,99.90
2019-02-15T22:09:51.549Z,99.90
2019-02-15T22:12:18.836Z,99.90
2019-02-15T22:14:46.154Z,99.90
2019-02-15T22:17:13.522Z,99.90
2019-02-15T22:19:40.861Z,99.90
2019-02-15T22:22:08.336Z,99.90
2019-02-15T22:24:35.669Z,99.90
2019-02-15T22:27:03.230Z,99.90
2019-02-15T22:29:30.789Z,99.90
2019-02-15T22:31:58.200Z,99.90
2019-02-15T22:34:37.767Z,99.90
2019-02-15T22:37:05.027Z,99.90
2019-02-15T22:39:32.406Z,99.90
2019-02-15T22:41:59.637Z,99.90
2019-02-15T22:44:29.965Z,99.90
2019-02-15T22:46:57.306Z,99.90
2019-02-15T22:49:24.574Z,99.90
2019-02-15T22:51:51.945Z,99.90
2019-02-15T22:54:19.290Z,99.90
2019-02-15T22:56:46.538Z,99.90
2019-02-15T22:59:14.015Z,99.90
2019-02-15T23:01:41.757Z,99.90
2019-02-15T23:04:09.029Z,99.90
2019-02-15T23:06:36.645Z,99.90
2019-02-15T23:09:08.314Z,99.90
2019-02-15T23:11:35.709Z,99.90
2019-02-15T23:14:02.946Z,99.90
2019-02-15T23:16:30.173Z,99.90
2019-02-15T23:18:57.410Z,99.90
2019-02-15T23:21:24.690Z,99.90
2019-02-15T23:23:52.006Z,99.90
2019-02-15T23:26:19.269Z,99.90
2019-02-15T23:28:46.511Z,99.90
2019-02-15T23:31:13.898Z,99.90
2019-02-15T23:33:41.153Z,99.90
2019-02-15T23:36:08.380Z,99.90
2019-02-15T23:38:35.622Z,99.90
2019-02-15T23:41:02.897Z,99.90
2019-02-15T23:43:30.169Z,99.90
2019-02-15T23:45:57.395Z,99.90
2019-02-15T23:48:24.750Z,99.90
2019-02-15T23:50:55.041Z,99.90
2019-02-15T23:53:21.294Z,99.90
2019-02-15T23:55:48.554Z,99.90
2019-02-15T23:58:15.817Z,99.90
